createdAt,value
2019-05-03T00:01:25.649Z,20.00
2019-05-03T00:03:56.941Z,15.97
2019-05-03T00:06:26.183Z,14.50
2019-05-03T00:08:58.233Z,15.27
2019-05-03T00:11:32.699Z,18.93
2019-05-03T00:14:02.664Z,18.87
2019-05-03T00:16:35.114Z,15.70
2019-05-03T00:19:05.577Z,20.23
2019-05-03T00:21:34.826Z,16.33
2019-05-03T00:24:06.070Z,12.63
2019-05-03T00:26:37.040Z,17.70
2019-05-03T00:29:06.234Z,17.47
2019-05-03T00:31:36.848Z,19.60
2019-05-03T00:34:09.734Z,15.50
2019-05-03T00:36:43.958Z,13.80
2019-05-03T00:39:21.602Z,15.63
2019-05-03T00:41:52.091Z,14.37
2019-05-03T00:44:22.241Z,18.73
2019-05-03T00:46:51.886Z,18.63
2019-05-03T00:49:22.652Z,14.33
2019-05-03T00:51:52.551Z,13.93
2019-05-03T00:54:22.333Z,16.93
2019-05-03T00:56:52.211Z,14.57
2019-05-03T00:59:22.460Z,11.53
2019-05-03T01:01:52.226Z,16.83
2019-05-03T01:04:22.344Z,13.30
2019-05-03T01:06:52.703Z,11.70
2019-05-03T01:09:23.486Z,13.27
2019-05-03T01:11:54.775Z,10.83
2019-05-03T01:14:27.370Z,14.93
2019-05-03T01:16:59.028Z,13.00
2019-05-03T01:19:28.245Z,13.03
2019-05-03T01:22:02.037Z,13.43
2019-05-03T01:24:32.291Z,17.20
2019-05-03T01:27:02.052Z,15.30
2019-05-03T01:29:32.255Z,15.77
2019-05-03T01:32:02.311Z,15.50
2019-05-03T01:34:32.617Z,14.30
2019-05-03T01:37:02.671Z,13.43
2019-05-03T01:39:33.074Z,12.23
2019-05-03T01:42:02.746Z,10.63
2019-05-03T01:44:33.484Z,14.13
2019-05-03T01:47:05.132Z,13.97
2019-05-03T01:49:56.434Z,15.57
2019-05-03T01:52:30.164Z,17.57
2019-05-03T01:55:03.335Z,12.37
2019-05-03T01:57:32.830Z,16.57
2019-05-03T02:00:02.928Z,12.57
2019-05-03T02:02:41.898Z,12.37
2019-05-03T02:05:32.059Z,13.97
2019-05-03T02:08:06.999Z,17.73
2019-05-03T02:10:38.309Z,15.63
2019-05-03T02:13:07.545Z,12.93
2019-05-03T02:15:36.832Z,12.37
2019-05-03T02:18:06.315Z,14.37
2019-05-03T02:20:36.581Z,19.30
2019-05-03T02:23:07.813Z,14.63
2019-05-03T02:25:36.967Z,12.83
2019-05-03T02:28:06.224Z,7.37
2019-05-03T02:30:37.165Z,12.70
2019-05-03T02:33:06.403Z,15.03
2019-05-03T02:35:35.944Z,13.33
2019-05-03T02:38:05.542Z,10.80
2019-05-03T02:40:34.780Z,14.97
2019-05-03T02:43:11.527Z,17.33
2019-05-03T02:45:50.713Z,12.57
2019-05-03T02:48:27.467Z,13.43
2019-05-03T02:50:56.791Z,10.00
2019-05-03T02:53:26.344Z,22.90
2019-05-03T02:56:13.991Z,12.83
2019-05-03T02:58:29.425Z,11.53
2019-05-03T03:01:00.792Z,10.67
2019-05-03T03:03:31.955Z,13.10
2019-05-03T03:06:02.954Z,10.67
2019-05-03T03:08:36.690Z,10.47
2019-05-03T03:11:07.345Z,8.70
2019-05-03T03:13:39.236Z,14.00
2019-05-03T03:16:10.317Z,12.43
2019-05-03T03:18:40.667Z,10.00
2019-05-03T03:21:16.243Z,11.23
2019-05-03T03:24:08.059Z,11.00
2019-05-03T03:26:43.243Z,14.90
2019-05-03T03:29:16.575Z,12.10
2019-05-03T03:32:10.223Z,8.43
2019-05-03T03:34:55.454Z,10.37
2019-05-03T03:37:19.844Z,8.37
2019-05-03T03:39:49.269Z,12.13
2019-05-03T03:42:20.145Z,9.00
2019-05-03T03:44:50.415Z,11.13
2019-05-03T03:47:21.516Z,10.83
2019-05-03T03:49:55.228Z,7.03
2019-05-03T03:52:25.485Z,14.00
2019-05-03T03:54:57.677Z,12.10
2019-05-03T03:57:30.053Z,12.20
2019-05-03T04:00:02.531Z,17.63
2019-05-03T04:02:35.399Z,16.40
2019-05-03T04:05:07.000Z,15.73
2019-05-03T04:07:40.324Z,8.73
2019-05-03T04:10:11.767Z,34.17
2019-05-03T04:12:45.270Z,12.60
2019-05-03T04:15:28.541Z,16.17
2019-05-03T04:18:12.494Z,8.73
2019-05-03T04:20:45.648Z,13.20
2019-05-03T04:23:16.033Z,10.10
2019-05-03T04:25:45.109Z,13.53
2019-05-03T04:28:16.290Z,13.33
2019-05-03T04:30:46.001Z,13.30
2019-05-03T04:33:16.022Z,19.80
2019-05-03T04:35:46.579Z,13.27
2019-05-03T04:38:16.449Z,14.30
2019-05-03T04:40:47.299Z,12.50
2019-05-03T04:43:16.768Z,16.70
2019-05-03T04:46:01.008Z,11.53
2019-05-03T04:48:30.230Z,10.10
2019-05-03T04:50:59.460Z,9.30
2019-05-03T04:53:29.705Z,9.10
2019-05-03T04:56:00.066Z,6.07
2019-05-03T04:58:29.394Z,10.93
2019-05-03T05:00:58.539Z,11.83
2019-05-03T05:03:27.772Z,8.47
2019-05-03T05:05:59.646Z,11.20
2019-05-03T05:08:29.478Z,13.87
2019-05-03T05:10:58.633Z,10.97
2019-05-03T05:13:27.984Z,11.60
2019-05-03T05:16:00.461Z,12.87
2019-05-03T05:18:52.600Z,9.70
2019-05-03T05:21:25.354Z,6.37
2019-05-03T05:24:00.105Z,8.93
2019-05-03T05:26:36.936Z,17.20
2019-05-03T05:29:09.381Z,10.30
2019-05-03T05:31:38.528Z,7.30
2019-05-03T05:34:08.933Z,7.27
2019-05-03T05:36:38.528Z,9.10
2019-05-03T05:39:10.806Z,4.97
2019-05-03T05:41:40.011Z,10.07
2019-05-03T05:44:09.545Z,11.13
2019-05-03T05:46:58.132Z,7.77
2019-05-03T05:49:47.479Z,8.77
2019-05-03T05:52:16.682Z,7.60
2019-05-03T05:54:50.214Z,5.90
2019-05-03T05:58:01.848Z,8.60
2019-05-03T06:00:25.684Z,9.03
2019-05-03T06:02:58.751Z,7.57
2019-05-03T06:05:28.688Z,10.30
2019-05-03T06:08:25.147Z,8.07
2019-05-03T06:11:08.505Z,9.17
2019-05-03T06:13:45.312Z,6.00
2019-05-03T06:16:24.521Z,7.20
2019-05-03T06:19:06.466Z,8.90
2019-05-03T06:21:47.658Z,7.60
2019-05-03T06:24:22.344Z,7.83
2019-05-03T06:26:58.951Z,6.60
2019-05-03T06:29:28.162Z,10.57
2019-05-03T06:32:25.849Z,10.27
2019-05-03T06:34:56.359Z,5.27
2019-05-03T06:37:27.587Z,11.07
2019-05-03T06:40:00.796Z,6.57
2019-05-03T06:42:31.530Z,6.57
2019-05-03T06:45:09.679Z,7.40
2019-05-03T06:47:40.133Z,9.90
2019-05-03T06:50:05.487Z,4.10
2019-05-03T06:52:37.233Z,6.10
2019-05-03T06:55:10.670Z,8.17
2019-05-03T06:57:40.014Z,7.53
2019-05-03T07:00:41.914Z,4.10
2019-05-03T07:03:41.809Z,6.07
2019-05-03T07:06:39.398Z,3.90
2019-05-03T07:09:35.285Z,7.00
2019-05-03T07:12:07.980Z,4.93
2019-05-03T07:14:37.657Z,5.50
2019-05-03T07:17:06.806Z,6.70
2019-05-03T07:19:35.970Z,4.83
2019-05-03T07:22:05.370Z,6.17
2019-05-03T07:24:40.343Z,4.63
2019-05-03T07:27:07.136Z,3.10
2019-05-03T07:29:41.812Z,4.13
2019-05-03T07:32:12.745Z,5.23
2019-05-03T07:34:45.156Z,4.93
2019-05-03T07:37:14.561Z,5.93
2019-05-03T07:39:48.095Z,7.07
2019-05-03T07:42:19.592Z,7.20
2019-05-03T07:44:48.523Z,7.30
2019-05-03T07:47:18.343Z,8.03
2019-05-03T07:49:47.751Z,11.53
2019-05-03T07:52:16.887Z,5.17
2019-05-03T07:54:46.357Z,4.97
2019-05-03T07:57:30.617Z,7.37
2019-05-03T08:00:05.256Z,6.63
2019-05-03T08:02:37.942Z,9.67
2019-05-03T08:05:07.289Z,7.47
2019-05-03T08:07:37.817Z,5.00
2019-05-03T08:10:07.993Z,5.57
2019-05-03T08:12:37.233Z,4.20
2019-05-03T08:15:08.799Z,4.93
2019-05-03T08:17:37.750Z,6.50
2019-05-03T08:20:09.389Z,4.70
2019-05-03T08:22:38.623Z,5.90
2019-05-03T08:25:07.854Z,7.87
2019-05-03T08:27:38.013Z,4.13
2019-05-03T08:30:11.116Z,4.60
2019-05-03T08:32:58.050Z,8.37
2019-05-03T08:35:35.551Z,6.50
2019-05-03T08:38:05.055Z,6.60
2019-05-03T08:40:38.763Z,8.77
2019-05-03T08:43:11.158Z,5.67
2019-05-03T08:45:40.337Z,3.87
2019-05-03T08:48:10.606Z,14.73
2019-05-03T08:50:39.724Z,5.03
2019-05-03T08:53:08.934Z,11.83
2019-05-03T08:55:38.220Z,10.03
2019-05-03T08:58:09.609Z,4.93
2019-05-03T09:00:40.410Z,5.97
2019-05-03T09:03:11.734Z,4.40
2019-05-03T09:05:45.309Z,6.53
2019-05-03T09:08:15.696Z,7.37
2019-05-03T09:11:15.362Z,6.70
2019-05-03T09:13:50.436Z,7.70
2019-05-03T09:16:25.131Z,5.83
2019-05-03T09:18:58.004Z,5.47
2019-05-03T09:21:28.626Z,3.63
2019-05-03T09:23:59.021Z,5.97
2019-05-03T09:26:29.502Z,5.30
2019-05-03T09:29:01.527Z,3.97
2019-05-03T09:31:31.138Z,5.87
2019-05-03T09:34:00.613Z,4.80
2019-05-03T09:36:30.576Z,5.47
2019-05-03T09:39:01.822Z,4.80
2019-05-03T09:41:34.826Z,5.23
2019-05-03T09:44:04.731Z,6.00
2019-05-03T09:46:35.448Z,5.97
2019-05-03T09:49:13.294Z,5.67
2019-05-03T09:51:35.892Z,7.87
2019-05-03T09:54:12.040Z,5.10
2019-05-03T09:57:00.244Z,4.30
2019-05-03T09:59:31.276Z,9.90
2019-05-03T10:02:04.663Z,6.33
2019-05-03T10:04:44.697Z,9.13
2019-05-03T10:07:15.318Z,5.13
2019-05-03T10:09:47.060Z,4.80
2019-05-03T10:12:21.240Z,7.43
2019-05-03T10:14:50.788Z,6.97
2019-05-03T10:17:41.911Z,10.83
2019-05-03T10:20:15.290Z,6.17
2019-05-03T10:22:44.832Z,5.67
2019-05-03T10:25:14.661Z,7.97
2019-05-03T10:27:50.623Z,5.40
2019-05-03T10:30:29.663Z,5.07
2019-05-03T10:33:15.630Z,7.83
2019-05-03T10:35:46.777Z,8.30
2019-05-03T10:38:16.724Z,9.90
2019-05-03T10:40:46.003Z,4.60
2019-05-03T10:43:19.548Z,7.50
2019-05-03T10:45:49.482Z,6.73
2019-05-03T10:48:19.209Z,7.37
2019-05-03T10:50:51.022Z,8.10
2019-05-03T10:53:27.603Z,7.00
2019-05-03T10:56:20.229Z,7.80
2019-05-03T10:58:48.248Z,7.77
2019-05-03T11:01:19.316Z,11.00
2019-05-03T11:03:51.764Z,8.77
2019-05-03T11:06:22.062Z,8.23
2019-05-03T11:08:54.631Z,5.47
2019-05-03T11:11:25.879Z,7.30
2019-05-03T11:13:54.818Z,6.40
2019-05-03T11:16:25.481Z,7.60
2019-05-03T11:18:54.990Z,6.50
2019-05-03T11:21:28.839Z,9.60
2019-05-03T11:23:55.337Z,8.30
2019-05-03T11:26:25.280Z,7.03
2019-05-03T11:28:59.178Z,8.43
2019-05-03T11:31:44.626Z,11.40
2019-05-03T11:34:18.762Z,10.13
2019-05-03T11:37:08.549Z,10.23
2019-05-03T11:39:37.728Z,8.17
2019-05-03T11:42:07.089Z,10.80
2019-05-03T11:44:39.358Z,6.43
2019-05-03T11:47:14.871Z,7.00
2019-05-03T11:49:45.772Z,8.03
2019-05-03T11:52:17.563Z,8.23
2019-05-03T11:54:47.472Z,11.67
2019-05-03T11:57:26.670Z,11.87
2019-05-03T11:59:55.864Z,10.30
2019-05-03T12:02:55.508Z,9.00
2019-05-03T12:05:27.163Z,4.37
2019-05-03T12:07:56.368Z,6.93
2019-05-03T12:10:50.573Z,9.73
2019-05-03T12:13:01.393Z,6.53
2019-05-03T12:15:30.749Z,8.00
2019-05-03T12:18:05.473Z,8.50
2019-05-03T12:20:37.963Z,7.57
2019-05-03T12:23:07.833Z,6.93
2019-05-03T12:25:38.227Z,7.63
2019-05-03T12:28:07.908Z,6.37
2019-05-03T12:30:37.056Z,7.37
2019-05-03T12:33:06.373Z,8.10
2019-05-03T12:35:35.958Z,4.03
2019-05-03T12:38:05.704Z,12.23
2019-05-03T12:40:35.128Z,8.10
2019-05-03T12:43:06.127Z,7.23
2019-05-03T12:45:35.636Z,9.20
2019-05-03T12:48:07.189Z,8.63
2019-05-03T12:50:36.538Z,7.57
2019-05-03T12:53:06.418Z,5.70
2019-05-03T12:55:35.864Z,10.23
2019-05-03T12:58:06.371Z,10.70
2019-05-03T13:00:48.601Z,9.73
2019-05-03T13:03:26.693Z,6.30
2019-05-03T13:05:55.872Z,4.97
2019-05-03T13:08:38.044Z,9.37
2019-05-03T13:11:07.584Z,8.33
2019-05-03T13:13:36.824Z,5.90
2019-05-03T13:16:06.468Z,4.87
2019-05-03T13:18:35.805Z,6.00
2019-05-03T13:21:06.170Z,11.90
2019-05-03T13:23:36.693Z,10.17
2019-05-03T13:26:06.213Z,6.60
2019-05-03T13:28:35.514Z,9.70
2019-05-03T13:31:06.824Z,7.13
2019-05-03T13:33:37.969Z,6.47
2019-05-03T13:36:10.285Z,7.70
2019-05-03T13:38:39.798Z,7.57
2019-05-03T13:41:08.968Z,9.27
2019-05-03T13:43:39.736Z,6.60
2019-05-03T13:46:11.833Z,5.87
2019-05-03T13:48:46.613Z,10.37
2019-05-03T13:51:14.766Z,5.43
2019-05-03T13:53:44.035Z,5.17
2019-05-03T13:56:15.589Z,7.17
2019-05-03T13:58:44.819Z,5.27
2019-05-03T14:01:14.739Z,8.73
2019-05-03T14:03:45.286Z,4.80
2019-05-03T14:06:15.025Z,8.40
2019-05-03T14:08:45.456Z,7.53
2019-05-03T14:11:16.133Z,5.17
2019-05-03T14:13:45.271Z,7.03
2019-05-03T14:16:14.566Z,8.90
2019-05-03T14:18:45.668Z,7.03
2019-05-03T14:21:20.221Z,3.87
2019-05-03T14:24:09.286Z,8.17
2019-05-03T14:26:38.926Z,7.40
2019-05-03T14:29:14.641Z,4.60
2019-05-03T14:31:45.403Z,3.93
2019-05-03T14:34:16.913Z,4.73
2019-05-03T14:36:45.484Z,7.30
2019-05-03T14:39:15.168Z,3.00
2019-05-03T14:41:46.530Z,3.13
2019-05-03T14:44:17.934Z,4.23
2019-05-03T14:46:46.324Z,6.40
2019-05-03T14:49:15.722Z,6.10
2019-05-03T14:51:45.583Z,4.90
2019-05-03T14:54:17.350Z,3.93
2019-05-03T14:56:58.107Z,4.83
2019-05-03T14:59:52.393Z,5.27
2019-05-03T15:02:51.099Z,5.37
2019-05-03T15:05:20.736Z,5.13
2019-05-03T15:07:49.879Z,4.87
2019-05-03T15:10:19.424Z,4.87
2019-05-03T15:12:48.565Z,8.27
2019-05-03T15:15:20.851Z,3.10
2019-05-03T15:17:50.035Z,3.63
2019-05-03T15:20:19.391Z,6.20
2019-05-03T15:22:48.635Z,1.53
2019-05-03T15:25:17.975Z,4.33
2019-05-03T15:27:48.694Z,4.90
2019-05-03T15:30:18.762Z,3.67
2019-05-03T15:32:57.780Z,3.53
2019-05-03T15:35:21.028Z,2.80
2019-05-03T15:37:50.156Z,5.40
2019-05-03T15:40:19.380Z,4.27
2019-05-03T15:42:54.705Z,4.93
2019-05-03T15:45:42.012Z,7.87
2019-05-03T15:48:26.139Z,5.77
2019-05-03T15:50:55.533Z,5.27
2019-05-03T15:53:28.966Z,6.33
2019-05-03T15:55:58.916Z,7.77
2019-05-03T15:58:28.146Z,5.23
2019-05-03T16:00:57.573Z,4.40
2019-05-03T16:03:28.252Z,7.00
2019-05-03T16:05:58.092Z,3.77
2019-05-03T16:08:27.230Z,6.80
2019-05-03T16:10:58.407Z,5.67
2019-05-03T16:13:27.912Z,4.60
2019-05-03T16:15:57.120Z,6.50
2019-05-03T16:18:26.266Z,6.60
2019-05-03T16:20:57.972Z,7.00
2019-05-03T16:23:27.107Z,4.20
2019-05-03T16:25:57.608Z,4.30
2019-05-03T16:28:38.359Z,3.80
2019-05-03T16:31:10.637Z,4.00
2019-05-03T16:33:39.774Z,4.90
2019-05-03T16:36:08.987Z,4.47
2019-05-03T16:38:39.073Z,5.50
2019-05-03T16:41:08.178Z,7.47
2019-05-03T16:43:37.409Z,5.90
2019-05-03T16:46:06.868Z,5.00
2019-05-03T16:48:38.176Z,6.27
2019-05-03T16:51:07.300Z,8.57
2019-05-03T16:53:36.456Z,7.43
2019-05-03T16:56:05.642Z,6.30
2019-05-03T16:58:35.399Z,7.27
2019-05-03T17:01:04.646Z,6.87
2019-05-03T17:03:41.495Z,7.63
2019-05-03T17:06:30.186Z,8.00
2019-05-03T17:09:17.270Z,5.47
2019-05-03T17:12:06.041Z,8.60
2019-05-03T17:14:36.823Z,6.07
2019-05-03T17:17:07.490Z,6.93
2019-05-03T17:19:36.588Z,6.80
2019-05-03T17:22:05.841Z,7.03
2019-05-03T17:24:35.451Z,4.83
2019-05-03T17:27:06.026Z,3.57
2019-05-03T17:29:39.178Z,5.33
2019-05-03T17:32:11.206Z,4.33
2019-05-03T17:34:40.416Z,5.27
2019-05-03T17:37:11.651Z,7.77
2019-05-03T17:40:14.739Z,6.70
2019-05-03T17:43:09.625Z,6.80
2019-05-03T17:45:45.430Z,10.50
2019-05-03T17:48:14.961Z,3.27
2019-05-03T17:50:45.444Z,5.53
2019-05-03T17:53:37.302Z,7.67
2019-05-03T17:56:17.225Z,6.20
2019-05-03T17:59:20.427Z,5.90
2019-05-03T18:02:07.505Z,6.17
2019-05-03T18:05:10.923Z,4.70
2019-05-03T18:08:11.789Z,5.20
2019-05-03T18:10:42.561Z,5.27
2019-05-03T18:13:14.646Z,4.07
2019-05-03T18:15:44.943Z,5.43
2019-05-03T18:18:15.761Z,4.70
2019-05-03T18:20:45.149Z,4.77
2019-05-03T18:23:15.364Z,5.67
2019-05-03T18:25:44.807Z,5.97
2019-05-03T18:28:15.053Z,4.93
2019-05-03T18:30:45.466Z,6.20
2019-05-03T18:33:15.379Z,4.43
2019-05-03T18:35:44.696Z,4.40
2019-05-03T18:38:14.842Z,7.73
2019-05-03T18:40:44.835Z,8.63
2019-05-03T18:43:21.769Z,4.87
2019-05-03T18:46:22.144Z,9.23
2019-05-03T18:48:51.780Z,3.83
2019-05-03T18:51:22.287Z,2.80
2019-05-03T18:53:51.435Z,4.10
2019-05-03T18:56:21.877Z,5.43
2019-05-03T18:58:51.177Z,4.13
2019-05-03T19:01:20.432Z,3.47
2019-05-03T19:03:52.109Z,3.93
2019-05-03T19:06:21.733Z,5.77
2019-05-03T19:09:14.551Z,2.77
2019-05-03T19:11:50.623Z,4.90
2019-05-03T19:14:21.000Z,4.20
2019-05-03T19:17:07.303Z,4.30
2019-05-03T19:19:39.325Z,4.00
2019-05-03T19:22:09.849Z,3.70
2019-05-03T19:24:39.286Z,9.50
2019-05-03T19:27:09.232Z,6.50
2019-05-03T19:29:38.345Z,7.17
2019-05-03T19:32:07.558Z,8.53
2019-05-03T19:34:47.347Z,8.43
2019-05-03T19:37:08.346Z,6.47
2019-05-03T19:39:37.877Z,9.67
2019-05-03T19:42:06.983Z,7.20
2019-05-03T19:44:37.010Z,11.37
2019-05-03T19:47:09.517Z,10.30
2019-05-03T19:49:38.684Z,8.03
2019-05-03T19:52:14.429Z,14.40
2019-05-03T19:54:44.865Z,8.83
2019-05-03T19:57:15.958Z,6.07
2019-05-03T19:59:56.366Z,9.13
2019-05-03T20:02:42.972Z,5.27
2019-05-03T20:05:30.043Z,4.90
2019-05-03T20:08:19.460Z,5.80
2019-05-03T20:10:48.825Z,8.87
2019-05-03T20:13:18.057Z,4.90
2019-05-03T20:15:47.655Z,8.53
2019-05-03T20:18:18.092Z,5.97
2019-05-03T20:20:47.374Z,4.77
2019-05-03T20:23:18.351Z,5.43
2019-05-03T20:25:51.913Z,6.60
2019-05-03T20:28:24.705Z,8.07
2019-05-03T20:30:54.509Z,6.43
2019-05-03T20:33:27.004Z,6.77
2019-05-03T20:35:57.587Z,11.17
2019-05-03T20:39:23.031Z,7.73
2019-05-03T20:41:10.195Z,6.93
2019-05-03T20:43:56.228Z,6.37
2019-05-03T20:46:49.519Z,7.23
2019-05-03T20:49:19.100Z,7.87
2019-05-03T20:51:51.258Z,12.47
2019-05-03T20:54:19.484Z,8.10
2019-05-03T20:56:48.578Z,4.63
2019-05-03T20:59:17.982Z,8.17
2019-05-03T21:01:47.492Z,6.33
2019-05-03T21:04:18.286Z,3.27
2019-05-03T21:06:47.624Z,7.47
2019-05-03T21:09:17.351Z,9.17
2019-05-03T21:11:48.688Z,8.37
2019-05-03T21:14:19.934Z,5.43
2019-05-03T21:16:57.683Z,4.33
2019-05-03T21:19:44.739Z,13.00
2019-05-03T21:22:21.675Z,5.60
2019-05-03T21:25:06.451Z,6.27
2019-05-03T21:27:36.400Z,10.90
2019-05-03T21:30:06.051Z,9.17
2019-05-03T21:32:35.653Z,4.00
2019-05-03T21:35:05.438Z,7.70
2019-05-03T21:37:34.932Z,9.73
2019-05-03T21:40:05.125Z,5.07
2019-05-03T21:42:35.059Z,9.50
2019-05-03T21:45:04.847Z,8.60
2019-05-03T21:47:56.185Z,7.37
2019-05-03T21:50:25.744Z,8.70
2019-05-03T21:52:58.169Z,5.27
2019-05-03T21:55:28.064Z,7.07
2019-05-03T21:57:57.198Z,4.50
2019-05-03T22:00:30.700Z,7.57
2019-05-03T22:02:59.824Z,9.87
2019-05-03T22:05:29.033Z,7.60
2019-05-03T22:07:58.484Z,8.33
2019-05-03T22:10:27.708Z,6.53
2019-05-03T22:12:59.436Z,4.53
2019-05-03T22:15:50.478Z,8.40
2019-05-03T22:18:24.787Z,5.77
2019-05-03T22:21:13.344Z,4.67
2019-05-03T22:24:07.684Z,3.53
2019-05-03T22:26:52.917Z,4.53
2019-05-03T22:29:22.385Z,7.13
2019-05-03T22:31:51.584Z,5.50
2019-05-03T22:34:20.734Z,7.23
2019-05-03T22:36:49.951Z,7.87
2019-05-03T22:39:19.246Z,5.03
2019-05-03T22:41:50.805Z,4.17
2019-05-03T22:44:21.119Z,7.77
2019-05-03T22:46:50.267Z,10.50
2019-05-03T22:49:19.683Z,5.97
2019-05-03T22:51:48.981Z,6.10
2019-05-03T22:54:18.117Z,3.47
2019-05-03T22:56:47.660Z,5.87
2019-05-03T22:59:16.960Z,6.30
2019-05-03T23:01:46.168Z,6.07
2019-05-03T23:04:15.447Z,9.53
2019-05-03T23:06:47.031Z,5.93
2019-05-03T23:09:17.644Z,8.03
2019-05-03T23:11:46.730Z,6.93
2019-05-03T23:14:15.980Z,8.50
2019-05-03T23:16:47.984Z,8.03
2019-05-03T23:19:17.156Z,7.33
2019-05-03T23:22:25.154Z,7.00
2019-05-03T23:24:54.913Z,5.40
2019-05-03T23:27:25.171Z,5.03
2019-05-03T23:29:54.618Z,4.63
2019-05-03T23:32:24.470Z,6.83
2019-05-03T23:34:56.258Z,6.90
2019-05-03T23:37:30.538Z,10.20
2019-05-03T23:39:59.732Z,7.67
2019-05-03T23:42:35.027Z,5.07
2019-05-03T23:45:07.310Z,6.73
2019-05-03T23:47:45.857Z,10.17
2019-05-03T23:50:24.711Z,10.03
2019-05-03T23:53:00.189Z,11.83
2019-05-03T23:55:40.837Z,11.57
2019-05-03T23:58:10.127Z,10.40
